Time;durP1;ratioP1;P1;durP2;ratioP2;P2;SDS_P1;SDS_P2;PMS_P1;PMS_P2;Temp;Humidity;BMP_temperature;BMP_pressure;BME280_temperature;BME280_humidity;BME280_pressure;Samples;Min_cycle;Max_cycle;Signal;HPM_P1;HPM_P2
2022/07/31 00:01:23;;;;;;;;;;;18.20;99.90;;;;;;5059346;28;20014;-45
2022/07/31 00:03:48;;;;;;;;;;;18.20;99.90;;;;;;5061969;28;19929;-45
2022/07/31 00:06:13;;;;;;;;;;;18.20;99.90;;;;;;5067318;28;19943;-49
2022/07/31 00:08:39;;;;;;;;;;;18.20;99.90;;;;;;5066913;28;20042;-45
2022/07/31 00:11:04;;;;;;;;;;;18.20;99.90;;;;;;5064453;28;20282;-46
2022/07/31 00:13:30;;;;;;;;;;;18.20;99.90;;;;;;5054162;28;19931;-46
2022/07/31 00:15:55;;;;;;;;;;;18.20;99.90;;;;;;5054020;28;19920;-45
2022/07/31 00:18:21;;;;;;;;;;;18.20;99.90;;;;;;5053813;28;20477;-46
2022/07/31 00:20:48;;;;;;;;;;;18.20;99.90;;;;;;5064708;28;19983;-46
2022/07/31 00:23:13;;;;;;;;;;;18.30;99.90;;;;;;5061635;28;19920;-47
2022/07/31 00:25:39;;;;;;;;;;;18.30;99.90;;;;;;5054222;28;19932;-45
2022/07/31 00:28:05;;;;;;;;;;;18.20;99.90;;;;;;5052896;28;19916;-44
2022/07/31 00:30:30;;;;;;;;;;;18.20;99.90;;;;;;5054068;28;19967;-46
2022/07/31 00:32:56;;;;;;;;;;;18.20;99.90;;;;;;5053157;28;19975;-48
2022/07/31 00:35:21;;;;;;;;;;;18.10;99.90;;;;;;5054081;28;19917;-48
2022/07/31 00:37:47;;;;;;;;;;;18.10;99.90;;;;;;5053168;28;19943;-44
2022/07/31 00:40:14;;;;;;;;;;;18.10;99.90;;;;;;5053686;28;19917;-45
2022/07/31 00:42:40;;;;;;;;;;;18.00;99.90;;;;;;5052885;28;19920;-45
2022/07/31 00:45:06;;;;;;;;;;;18.00;99.90;;;;;;5053069;28;20262;-46
2022/07/31 00:47:31;;;;;;;;;;;18.00;99.90;;;;;;5053482;28;19937;-45
2022/07/31 00:49:57;;;;;;;;;;;18.00;99.90;;;;;;5053246;28;20031;-45
2022/07/31 00:52:22;;;;;;;;;;;17.90;99.90;;;;;;5053801;28;19923;-45
2022/07/31 00:54:48;;;;;;;;;;;17.90;99.90;;;;;;5052588;28;19920;-46
2022/07/31 00:57:14;;;;;;;;;;;17.80;99.90;;;;;;5052914;28;19970;-45
2022/07/31 00:59:39;;;;;;;;;;;17.80;99.90;;;;;;5053297;28;19923;-48
2022/07/31 01:02:07;;;;;;;;;;;17.80;99.90;;;;;;5053233;28;19920;-48
2022/07/31 01:04:32;;;;;;;;;;;17.80;99.90;;;;;;5052870;28;19916;-49
2022/07/31 01:06:59;;;;;;;;;;;17.80;99.90;;;;;;5060837;28;19924;-44
2022/07/31 01:09:25;;;;;;;;;;;17.80;99.90;;;;;;5061550;28;19917;-45
2022/07/31 01:12:01;;;;;;;;;;;17.80;99.90;;;;;;5064992;28;20470;-46
2022/07/31 01:14:28;;;;;;;;;;;17.70;99.90;;;;;;5056269;28;20282;-45
2022/07/31 01:16:55;;;;;;;;;;;17.70;99.90;;;;;;5063039;28;19916;-46
2022/07/31 01:19:23;;;;;;;;;;;17.70;99.90;;;;;;5064338;28;20420;-46
2022/07/31 01:21:57;;;;;;;;;;;17.70;99.90;;;;;;5057421;28;19923;-50
2022/07/31 01:24:37;;;;;;;;;;;17.70;99.90;;;;;;5053058;28;19917;-48
2022/07/31 01:27:05;;;;;;;;;;;17.70;99.90;;;;;;5052858;28;19917;-48
2022/07/31 01:29:30;;;;;;;;;;;17.60;99.90;;;;;;5052460;28;20408;-45
2022/07/31 01:32:02;;;;;;;;;;;17.60;99.90;;;;;;5052749;28;19916;-45
2022/07/31 01:34:40;;;;;;;;;;;17.60;99.90;;;;;;5052177;28;19971;-49
2022/07/31 01:37:09;;;;;;;;;;;17.60;99.90;;;;;;5052053;28;19923;-48
2022/07/31 01:39:35;;;;;;;;;;;17.60;99.90;;;;;;5052715;28;19917;-45
2022/07/31 01:42:03;;;;;;;;;;;17.60;99.90;;;;;;5052434;28;19968;-45
2022/07/31 01:44:30;;;;;;;;;;;17.50;99.90;;;;;;5051951;28;20390;-46
2022/07/31 01:46:57;;;;;;;;;;;17.50;99.90;;;;;;5051905;28;19936;-46
2022/07/31 01:49:23;;;;;;;;;;;17.50;99.90;;;;;;5050920;28;20208;-48
2022/07/31 01:51:49;;;;;;;;;;;17.50;99.90;;;;;;5052015;28;20354;-45
2022/07/31 01:54:17;;;;;;;;;;;17.40;99.90;;;;;;5051835;28;20003;-47
2022/07/31 01:56:42;;;;;;;;;;;17.40;99.90;;;;;;5052205;28;19952;-44
2022/07/31 01:59:09;;;;;;;;;;;17.40;99.90;;;;;;5051752;28;19960;-46
2022/07/31 02:01:37;;;;;;;;;;;17.30;99.90;;;;;;5052823;28;20374;-46
2022/07/31 02:04:02;;;;;;;;;;;17.30;99.90;;;;;;5068386;28;20626;-44
2022/07/31 02:06:28;;;;;;;;;;;17.30;99.90;;;;;;5055970;28;20374;-47
2022/07/31 02:08:55;;;;;;;;;;;17.30;99.90;;;;;;5063859;28;19923;-45
2022/07/31 02:11:21;;;;;;;;;;;17.40;99.90;;;;;;5060636;28;20356;-46
2022/07/31 02:13:47;;;;;;;;;;;17.40;99.90;;;;;;5051947;28;20386;-45
2022/07/31 02:16:13;;;;;;;;;;;17.40;99.90;;;;;;5066808;28;19923;-46
2022/07/31 02:18:39;;;;;;;;;;;17.40;99.90;;;;;;5064189;28;20039;-45
2022/07/31 02:21:04;;;;;;;;;;;17.40;99.90;;;;;;5057456;28;19916;-45
2022/07/31 02:23:30;;;;;;;;;;;17.40;99.90;;;;;;5062064;28;19985;-49
2022/07/31 02:25:56;;;;;;;;;;;17.40;99.90;;;;;;5053396;28;19920;-46
2022/07/31 02:28:23;;;;;;;;;;;17.40;99.90;;;;;;5063886;28;19970;-49
2022/07/31 02:30:49;;;;;;;;;;;17.40;99.90;;;;;;5052463;28;19971;-50
2022/07/31 02:33:19;;;;;;;;;;;17.50;99.90;;;;;;5055656;28;19927;-46
2022/07/31 02:35:47;;;;;;;;;;;17.50;99.90;;;;;;5065900;28;19920;-48
2022/07/31 02:38:13;;;;;;;;;;;17.50;99.90;;;;;;5069050;28;19920;-48
2022/07/31 02:40:39;;;;;;;;;;;17.40;99.90;;;;;;5052120;28;19924;-49
2022/07/31 02:43:05;;;;;;;;;;;17.50;99.90;;;;;;5064284;28;19920;-49
2022/07/31 02:45:31;;;;;;;;;;;17.50;99.90;;;;;;5051994;28;20304;-47
2022/07/31 02:47:56;;;;;;;;;;;17.50;99.90;;;;;;5052690;28;19921;-46
2022/07/31 02:50:22;;;;;;;;;;;17.40;99.90;;;;;;5051896;28;20011;-46
2022/07/31 02:52:47;;;;;;;;;;;17.50;99.90;;;;;;5058197;28;19916;-49
2022/07/31 02:55:13;;;;;;;;;;;17.50;99.90;;;;;;5052165;28;20377;-45
2022/07/31 02:57:39;;;;;;;;;;;17.50;99.90;;;;;;5055271;28;19970;-45
2022/07/31 03:00:21;;;;;;;;;;;17.50;99.90;;;;;;5065083;28;20171;-45
2022/07/31 03:02:48;;;;;;;;;;;17.50;99.90;;;;;;5053643;28;20333;-45
2022/07/31 03:05:14;;;;;;;;;;;17.50;99.90;;;;;;5060356;28;19916;-49
2022/07/31 03:07:40;;;;;;;;;;;17.50;99.90;;;;;;5051957;28;19916;-45
2022/07/31 03:10:05;;;;;;;;;;;17.50;99.90;;;;;;5052851;28;20450;-45
2022/07/31 03:12:31;;;;;;;;;;;17.50;99.90;;;;;;5050114;28;19920;-45
2022/07/31 03:14:56;;;;;;;;;;;17.50;99.90;;;;;;5050064;28;19924;-47
2022/07/31 03:17:22;;;;;;;;;;;17.50;99.90;;;;;;5050817;28;19917;-46
2022/07/31 03:19:48;;;;;;;;;;;17.40;99.90;;;;;;5050825;28;19974;-48
2022/07/31 03:22:13;;;;;;;;;;;17.40;99.90;;;;;;5050345;28;19921;-44
2022/07/31 03:24:39;;;;;;;;;;;17.50;99.90;;;;;;5050132;28;19921;-46
2022/07/31 03:27:05;;;;;;;;;;;17.50;99.90;;;;;;5050184;28;19978;-45
2022/07/31 03:29:37;;;;;;;;;;;17.50;99.90;;;;;;5050514;28;19932;-46
2022/07/31 03:32:03;;;;;;;;;;;17.50;99.90;;;;;;5050235;28;19923;-45
2022/07/31 03:34:28;;;;;;;;;;;17.60;99.90;;;;;;5050052;28;19921;-46
2022/07/31 03:36:53;;;;;;;;;;;17.60;99.90;;;;;;5050370;28;19924;-45
2022/07/31 03:39:19;;;;;;;;;;;17.60;99.90;;;;;;5050523;28;20309;-44
2022/07/31 03:41:45;;;;;;;;;;;17.60;99.90;;;;;;5049759;28;19917;-47
2022/07/31 03:44:10;;;;;;;;;;;17.60;99.90;;;;;;5067107;28;19973;-48
2022/07/31 03:46:36;;;;;;;;;;;17.60;99.90;;;;;;5070741;28;20036;-44
2022/07/31 03:49:02;;;;;;;;;;;17.60;99.90;;;;;;5053740;28;19916;-44
2022/07/31 03:51:27;;;;;;;;;;;17.60;99.90;;;;;;5051541;28;19916;-48
2022/07/31 03:53:53;;;;;;;;;;;17.60;99.90;;;;;;5062924;28;20213;-47
2022/07/31 03:56:19;;;;;;;;;;;17.60;99.90;;;;;;5057056;28;19917;-51
2022/07/31 03:58:44;;;;;;;;;;;17.60;99.90;;;;;;5053792;28;19923;-48
2022/07/31 04:01:10;;;;;;;;;;;17.60;99.90;;;;;;5052048;28;20015;-45
2022/07/31 04:03:35;;;;;;;;;;;17.60;99.90;;;;;;5057115;28;19920;-45
2022/07/31 04:06:00;;;;;;;;;;;17.60;99.90;;;;;;5060174;28;19920;-46
2022/07/31 04:08:26;;;;;;;;;;;17.60;99.90;;;;;;5057515;28;19956;-47
2022/07/31 04:10:52;;;;;;;;;;;17.60;99.90;;;;;;5056485;28;20377;-45
2022/07/31 04:13:18;;;;;;;;;;;17.60;99.90;;;;;;5051060;28;19974;-45
2022/07/31 04:15:43;;;;;;;;;;;17.60;99.90;;;;;;5053577;28;19917;-45
2022/07/31 04:18:09;;;;;;;;;;;17.60;99.90;;;;;;5060104;28;19930;-45
2022/07/31 04:20:34;;;;;;;;;;;17.60;99.90;;;;;;5050907;28;19917;-44
2022/07/31 04:23:00;;;;;;;;;;;17.60;99.90;;;;;;5050585;28;19925;-45
2022/07/31 04:25:25;;;;;;;;;;;17.60;99.90;;;;;;5061970;28;19916;-45
2022/07/31 04:27:51;;;;;;;;;;;17.70;99.90;;;;;;5054042;28;19921;-46
2022/07/31 04:30:16;;;;;;;;;;;17.60;99.90;;;;;;5051153;28;19917;-46
2022/07/31 04:32:42;;;;;;;;;;;17.60;99.90;;;;;;5052083;28;19963;-46
2022/07/31 04:35:08;;;;;;;;;;;17.60;99.90;;;;;;5050369;28;20390;-46
2022/07/31 04:37:33;;;;;;;;;;;17.60;99.90;;;;;;5058860;28;19923;-45
2022/07/31 04:39:59;;;;;;;;;;;17.60;99.90;;;;;;5064031;28;19917;-45
2022/07/31 04:42:24;;;;;;;;;;;17.60;99.90;;;;;;5063771;28;20019;-49
2022/07/31 04:44:50;;;;;;;;;;;17.70;99.90;;;;;;5059783;28;19921;-47
2022/07/31 04:47:15;;;;;;;;;;;17.70;99.90;;;;;;5069798;28;19917;-47
2022/07/31 04:49:41;;;;;;;;;;;17.70;99.90;;;;;;5053291;28;19921;-44
2022/07/31 04:52:06;;;;;;;;;;;17.70;99.90;;;;;;5055183;28;19916;-45
2022/07/31 04:54:33;;;;;;;;;;;17.70;99.90;;;;;;5065454;28;19917;-46
2022/07/31 04:56:58;;;;;;;;;;;17.70;99.90;;;;;;5061345;28;20185;-47
2022/07/31 04:59:24;;;;;;;;;;;17.70;99.90;;;;;;5072258;28;19920;-45
2022/07/31 05:01:50;;;;;;;;;;;17.70;99.90;;;;;;5055948;28;20381;-45
2022/07/31 05:04:15;;;;;;;;;;;17.70;99.90;;;;;;5066698;28;19917;-44
2022/07/31 05:06:42;;;;;;;;;;;17.70;99.90;;;;;;5054840;28;20306;-45
2022/07/31 05:09:15;;;;;;;;;;;17.70;99.90;;;;;;5068865;28;20383;-44
2022/07/31 05:11:41;;;;;;;;;;;17.70;99.90;;;;;;5055180;28;19920;-45
2022/07/31 05:14:07;;;;;;;;;;;17.70;99.90;;;;;;5052657;28;19970;-45
2022/07/31 05:16:34;;;;;;;;;;;17.70;99.90;;;;;;5052698;28;19921;-44
2022/07/31 05:19:00;;;;;;;;;;;17.80;99.90;;;;;;5052852;28;19917;-45
2022/07/31 05:21:26;;;;;;;;;;;17.80;99.90;;;;;;5052597;28;19939;-46
2022/07/31 05:23:52;;;;;;;;;;;17.80;99.90;;;;;;5051766;28;19978;-45
2022/07/31 05:26:17;;;;;;;;;;;17.80;99.90;;;;;;5052457;28;20356;-45
2022/07/31 05:28:43;;;;;;;;;;;17.90;99.90;;;;;;5052863;28;19925;-46
2022/07/31 05:31:09;;;;;;;;;;;17.90;99.90;;;;;;5052488;28;19917;-50
2022/07/31 05:33:35;;;;;;;;;;;18.00;99.90;;;;;;5052101;28;19924;-45
2022/07/31 05:36:01;;;;;;;;;;;18.00;99.90;;;;;;5052356;28;19916;-44
2022/07/31 05:38:26;;;;;;;;;;;18.10;99.90;;;;;;5052204;28;19920;-45
2022/07/31 05:40:52;;;;;;;;;;;18.10;99.90;;;;;;5053343;28;20378;-47
2022/07/31 05:43:18;;;;;;;;;;;18.10;99.90;;;;;;5058016;28;20015;-48
2022/07/31 05:45:45;;;;;;;;;;;18.20;99.90;;;;;;5063812;28;19927;-48
2022/07/31 05:48:12;;;;;;;;;;;18.20;99.90;;;;;;5062231;28;19947;-47
2022/07/31 05:50:40;;;;;;;;;;;18.30;99.90;;;;;;5051826;28;20305;-49
2022/07/31 05:53:05;;;;;;;;;;;18.30;99.90;;;;;;5053100;28;19916;-47
2022/07/31 05:55:31;;;;;;;;;;;18.30;99.90;;;;;;5052348;28;19974;-45
2022/07/31 05:57:56;;;;;;;;;;;18.40;99.90;;;;;;5066510;28;20003;-45
2022/07/31 06:00:22;;;;;;;;;;;18.40;99.90;;;;;;5053910;28;20046;-48
2022/07/31 06:02:47;;;;;;;;;;;18.50;99.90;;;;;;5063272;28;19927;-45
2022/07/31 06:05:13;;;;;;;;;;;18.60;99.90;;;;;;5052760;28;19924;-44
2022/07/31 06:07:38;;;;;;;;;;;18.60;99.90;;;;;;5065751;28;20023;-49
2022/07/31 06:10:04;;;;;;;;;;;18.70;99.90;;;;;;5070897;28;19916;-46
2022/07/31 06:12:29;;;;;;;;;;;18.70;99.90;;;;;;5053922;28;20305;-46
2022/07/31 06:14:55;;;;;;;;;;;18.70;99.90;;;;;;5051302;28;19926;-47
2022/07/31 06:17:20;;;;;;;;;;;18.80;99.90;;;;;;5051834;28;20050;-46
2022/07/31 06:19:46;;;;;;;;;;;18.90;99.90;;;;;;5054495;28;19924;-49
2022/07/31 06:22:11;;;;;;;;;;;18.90;99.90;;;;;;5051541;28;19924;-48
2022/07/31 06:24:37;;;;;;;;;;;19.00;99.90;;;;;;5052323;28;19924;-45
2022/07/31 06:27:02;;;;;;;;;;;19.00;99.90;;;;;;5051040;28;19925;-46
2022/07/31 06:29:28;;;;;;;;;;;19.10;99.90;;;;;;5060313;28;19923;-46
2022/07/31 06:31:54;;;;;;;;;;;19.10;99.90;;;;;;5055983;28;19917;-47
2022/07/31 06:34:19;;;;;;;;;;;19.20;99.90;;;;;;5051094;28;19963;-45
2022/07/31 06:36:45;;;;;;;;;;;19.20;99.90;;;;;;5054036;28;19916;-47
2022/07/31 06:39:10;;;;;;;;;;;19.30;99.90;;;;;;5051511;28;20447;-46
2022/07/31 06:41:48;;;;;;;;;;;19.30;99.90;;;;;;5051199;28;20011;-46
2022/07/31 06:44:15;;;;;;;;;;;19.30;99.90;;;;;;5067159;28;20369;-46
2022/07/31 06:46:41;;;;;;;;;;;19.40;99.90;;;;;;5056276;28;20405;-46
2022/07/31 06:49:06;;;;;;;;;;;19.40;99.90;;;;;;5059858;28;19948;-50
2022/07/31 06:51:32;;;;;;;;;;;19.50;99.90;;;;;;5050770;28;20396;-44
2022/07/31 06:54:01;;;;;;;;;;;19.40;99.90;;;;;;5051861;28;20385;-45
2022/07/31 06:56:30;;;;;;;;;;;19.50;99.90;;;;;;5050904;28;19978;-44
2022/07/31 06:58:56;;;;;;;;;;;19.50;99.90;;;;;;5055001;28;19916;-45
2022/07/31 07:01:21;;;;;;;;;;;19.60;99.90;;;;;;5051054;28;19921;-48
2022/07/31 07:03:47;;;;;;;;;;;19.60;99.90;;;;;;5049812;28;19921;-49
2022/07/31 07:06:12;;;;;;;;;;;19.70;99.90;;;;;;5049084;28;19921;-46
2022/07/31 07:08:38;;;;;;;;;;;19.70;99.90;;;;;;5050715;28;19916;-46
2022/07/31 07:11:03;;;;;;;;;;;19.80;99.90;;;;;;5051057;28;19917;-46
2022/07/31 07:13:29;;;;;;;;;;;19.80;99.90;;;;;;5050496;28;19917;-48
2022/07/31 07:15:54;;;;;;;;;;;19.90;99.90;;;;;;5049299;28;19954;-45
2022/07/31 07:18:20;;;;;;;;;;;19.80;99.90;;;;;;5050276;28;19921;-46
2022/07/31 07:20:46;;;;;;;;;;;19.90;99.70;;;;;;5050927;28;19924;-47
2022/07/31 07:23:12;;;;;;;;;;;19.90;99.90;;;;;;5050463;28;19921;-46
2022/07/31 07:25:37;;;;;;;;;;;20.00;99.90;;;;;;5050746;28;19916;-47
2022/07/31 07:28:03;;;;;;;;;;;20.00;99.50;;;;;;5049943;28;19917;-45
2022/07/31 07:30:29;;;;;;;;;;;20.00;99.70;;;;;;5050399;28;19917;-46
2022/07/31 07:32:54;;;;;;;;;;;20.10;99.90;;;;;;5049937;28;19961;-44
2022/07/31 07:35:20;;;;;;;;;;;20.10;99.90;;;;;;5050325;28;20747;-45
2022/07/31 07:37:46;;;;;;;;;;;20.20;99.90;;;;;;5050365;28;19916;-46
2022/07/31 07:40:12;;;;;;;;;;;20.10;99.90;;;;;;5053160;28;19974;-45
2022/07/31 07:42:38;;;;;;;;;;;20.20;99.90;;;;;;5050083;28;20332;-47
2022/07/31 07:45:03;;;;;;;;;;;20.20;99.90;;;;;;5049164;28;20405;-47
2022/07/31 07:47:29;;;;;;;;;;;20.20;99.90;;;;;;5049710;28;20381;-46
2022/07/31 07:49:54;;;;;;;;;;;20.20;99.90;;;;;;5051660;28;19921;-45
2022/07/31 07:52:20;;;;;;;;;;;20.20;99.90;;;;;;5061494;28;19920;-47
2022/07/31 07:54:46;;;;;;;;;;;20.20;99.90;;;;;;5050092;28;19968;-45
2022/07/31 07:57:19;;;;;;;;;;;20.20;99.90;;;;;;5050540;28;20416;-45
2022/07/31 07:59:45;;;;;;;;;;;20.20;99.70;;;;;;5056299;28;19916;-44
2022/07/31 08:02:13;;;;;;;;;;;20.20;99.90;;;;;;5059751;28;19924;-45
2022/07/31 08:04:39;;;;;;;;;;;20.30;99.90;;;;;;5054488;28;19917;-48
2022/07/31 08:07:05;;;;;;;;;;;20.20;99.90;;;;;;5058972;28;19923;-45
2022/07/31 08:09:31;;;;;;;;;;;20.30;99.90;;;;;;5049967;28;19924;-45
2022/07/31 08:11:56;;;;;;;;;;;20.30;99.90;;;;;;5053532;28;20349;-47
2022/07/31 08:14:22;;;;;;;;;;;20.30;99.90;;;;;;5053531;28;19923;-49
2022/07/31 08:16:47;;;;;;;;;;;20.30;99.90;;;;;;5065546;28;19924;-47
2022/07/31 08:19:13;;;;;;;;;;;20.30;99.90;;;;;;5072386;28;19916;-45
2022/07/31 08:21:38;;;;;;;;;;;20.30;99.90;;;;;;5057142;28;20021;-45
2022/07/31 08:24:04;;;;;;;;;;;20.40;99.90;;;;;;5064589;28;19932;-46
2022/07/31 08:29:14;;;;;;;;;;;20.30;99.90;;;;;;5053618;28;20003;-44
2022/07/31 08:31:39;;;;;;;;;;;20.40;99.90;;;;;;5060487;28;19999;-45
2022/07/31 08:34:05;;;;;;;;;;;20.40;99.90;;;;;;5056145;28;19917;-46
2022/07/31 08:36:30;;;;;;;;;;;20.40;99.90;;;;;;5053487;28;19952;-45
2022/07/31 08:38:56;;;;;;;;;;;20.40;99.90;;;;;;5053392;28;19960;-45
2022/07/31 08:41:21;;;;;;;;;;;20.40;99.90;;;;;;5053508;28;19974;-50
2022/07/31 08:43:47;;;;;;;;;;;20.50;99.90;;;;;;5052769;28;20301;-45
2022/07/31 08:46:12;;;;;;;;;;;20.40;99.90;;;;;;5053227;28;19966;-45
2022/07/31 08:48:42;;;;;;;;;;;20.50;99.90;;;;;;5053696;28;20370;-45
2022/07/31 08:51:11;;;;;;;;;;;20.60;99.90;;;;;;5053351;28;19916;-45
2022/07/31 08:53:37;;;;;;;;;;;20.60;99.90;;;;;;5053061;28;19916;-45
2022/07/31 08:56:04;;;;;;;;;;;20.70;99.90;;;;;;5064820;28;19917;-45
2022/07/31 08:58:29;;;;;;;;;;;20.70;99.90;;;;;;5071001;28;20001;-46
2022/07/31 09:00:55;;;;;;;;;;;20.70;99.90;;;;;;5062053;28;19952;-45
2022/07/31 09:03:21;;;;;;;;;;;20.80;99.90;;;;;;5055770;28;20042;-46
2022/07/31 09:05:46;;;;;;;;;;;20.80;99.90;;;;;;5070683;28;19916;-45
2022/07/31 09:08:12;;;;;;;;;;;20.90;99.90;;;;;;5056125;28;19939;-46
2022/07/31 09:10:37;;;;;;;;;;;20.90;99.90;;;;;;5057991;28;20002;-45
2022/07/31 09:13:10;;;;;;;;;;;20.90;99.90;;;;;;5051944;28;19921;-45
2022/07/31 09:15:36;;;;;;;;;;;20.90;99.90;;;;;;5050545;28;19923;-45
2022/07/31 09:18:01;;;;;;;;;;;20.90;99.90;;;;;;5052973;28;20401;-45
2022/07/31 09:20:28;;;;;;;;;;;20.90;99.90;;;;;;5055025;28;19920;-45
2022/07/31 09:23:07;;;;;;;;;;;20.90;99.90;;;;;;5061297;28;19927;-45
2022/07/31 09:25:33;;;;;;;;;;;20.90;99.90;;;;;;5053100;28;19963;-45
2022/07/31 09:28:02;;;;;;;;;;;20.90;99.90;;;;;;5062312;28;19920;-47
2022/07/31 09:30:27;;;;;;;;;;;20.90;99.90;;;;;;5055059;28;19917;-45
2022/07/31 09:32:53;;;;;;;;;;;21.00;99.90;;;;;;5064559;28;19996;-45
2022/07/31 09:35:19;;;;;;;;;;;20.90;99.90;;;;;;5053354;28;20054;-48
2022/07/31 09:37:47;;;;;;;;;;;20.90;99.90;;;;;;5052234;28;20332;-45
2022/07/31 09:40:13;;;;;;;;;;;20.90;99.90;;;;;;5061005;28;20523;-48
2022/07/31 09:42:42;;;;;;;;;;;20.90;99.90;;;;;;5087688;28;19920;-48
2022/07/31 09:45:20;;;;;;;;;;;20.90;99.90;;;;;;5054630;28;19991;-45
2022/07/31 09:47:46;;;;;;;;;;;20.90;99.90;;;;;;5051247;28;19927;-45
2022/07/31 09:50:12;;;;;;;;;;;20.90;99.90;;;;;;5054948;28;19996;-45
2022/07/31 09:52:37;;;;;;;;;;;20.80;99.90;;;;;;5051168;28;20397;-45
2022/07/31 09:56:33;;;;;;;7.90;6.57;;;20.80;99.90;;;;;;5108639;27;20322;-45
2022/07/31 09:58:59;;;;;;;7.63;6.90;;;20.80;99.90;;;;;;5097062;28;20101;-46
2022/07/31 10:01:26;;;;;;;11.10;7.18;;;20.80;99.90;;;;;;5087774;28;20036;-45
2022/07/31 10:03:53;;;;;;;8.23;7.00;;;20.90;99.90;;;;;;5086740;28;20078;-46
2022/07/31 10:06:19;;;;;;;9.90;7.60;;;20.90;99.90;;;;;;5066848;28;20552;-46
2022/07/31 10:08:45;;;;;;;;;;;20.90;99.90;;;;;;5067432;28;20444;-45
2022/07/31 10:11:13;;;;;;;11.13;7.88;;;20.90;99.90;;;;;;5066939;28;19916;-46
2022/07/31 10:13:44;;;;;;;9.48;7.25;;;20.90;99.90;;;;;;5066973;28;20044;-45
2022/07/31 10:16:10;;;;;;;10.05;7.38;;;20.90;99.90;;;;;;5064913;28;20052;-46
2022/07/31 10:18:37;;;;;;;;;;;20.90;99.90;;;;;;5067027;28;20037;-49
2022/07/31 10:21:04;;;;;;;10.77;8.05;;;20.90;99.90;;;;;;5067185;28;20007;-50
2022/07/31 10:23:32;;;;;;;10.38;8.02;;;20.80;99.90;;;;;;5065606;28;20060;-45
2022/07/31 10:26:00;;;;;;;10.20;8.93;;;20.80;99.90;;;;;;5066194;28;20494;-48
2022/07/31 10:28:28;;;;;;;9.35;8.40;;;20.90;99.90;;;;;;5066156;28;20051;-46
2022/07/31 10:30:55;;;;;;;9.77;8.80;;;20.90;99.90;;;;;;5066679;28;20115;-47
2022/07/31 10:33:21;;;;;;;13.18;9.57;;;21.00;99.90;;;;;;5065361;28;20482;-48
2022/07/31 10:36:14;;;;;;;11.98;9.02;;;21.00;99.90;;;;;;5065118;28;20383;-46
2022/07/31 10:38:46;;;;;;;17.48;10.70;;;21.10;99.90;;;;;;5055931;28;20025;-47
2022/07/31 10:41:46;;;;;;;13.20;10.25;;;21.10;99.90;;;;;;5066654;28;20082;-47
2022/07/31 10:44:21;;;;;;;12.40;10.98;;;21.20;99.90;;;;;;5044777;28;20053;-48
2022/07/31 10:46:47;;;;;;;13.55;12.15;;;21.20;99.90;;;;;;5063581;28;20413;-47
2022/07/31 10:49:13;;;;;;;;;;;21.20;99.90;;;;;;5066396;28;20115;-49
2022/07/31 10:51:46;;;;;;;16.92;12.32;;;21.20;99.90;;;;;;5066176;28;19923;-48
2022/07/31 10:54:13;;;;;;;16.63;13.68;;;21.20;99.90;;;;;;5065693;28;20036;-48
2022/07/31 10:56:46;;;;;;;15.88;13.90;;;21.30;99.90;;;;;;5063835;28;20063;-46
2022/07/31 10:59:12;;;;;;;16.48;12.60;;;21.30;99.90;;;;;;5065017;28;20494;-47
2022/07/31 11:01:47;;;;;;;;;;;21.40;99.90;;;;;;5066882;28;20042;-51
2022/07/31 11:04:23;;;;;;;14.52;13.00;;;21.50;99.90;;;;;;5065029;28;19921;-47
2022/07/31 11:06:50;;;;;;;17.75;13.57;;;21.60;99.90;;;;;;5058731;28;20399;-48
2022/07/31 11:09:23;;;;;;;16.27;13.57;;;21.50;99.90;;;;;;5052745;28;20037;-50
2022/07/31 11:11:49;;;;;;;17.85;15.48;;;21.50;99.90;;;;;;5052325;28;20108;-48
2022/07/31 11:14:15;;;;;;;;;;;21.50;99.90;;;;;;5051952;28;20037;-47
2022/07/31 11:16:50;;;;;;;15.15;13.15;;;21.40;99.90;;;;;;5052223;28;19924;-49
2022/07/31 11:19:16;;;;;;;14.60;12.90;;;21.40;99.90;;;;;;5052220;28;20036;-48
2022/07/31 11:21:42;;;;;;;;;;;21.40;99.90;;;;;;5053059;28;20456;-50
2022/07/31 11:24:20;;;;;;;20.90;15.50;;;21.30;99.90;;;;;;5051784;28;19917;-48
2022/07/31 11:26:56;;;;;;;19.55;13.88;;;21.30;99.90;;;;;;5052674;28;20053;-48
2022/07/31 11:29:38;;;;;;;18.38;13.65;;;21.30;99.90;;;;;;5051588;28;20099;-48
2022/07/31 11:32:03;;;;;;;15.23;13.40;;;21.20;99.90;;;;;;5051979;28;20056;-48
2022/07/31 11:34:29;;;;;;;;;;;21.20;99.90;;;;;;5047597;28;20037;-48
2022/07/31 11:36:55;;;;;;;12.25;10.95;;;21.20;99.90;;;;;;5049418;28;20202;-50
2022/07/31 11:39:22;;;;;;;;;;;21.10;99.90;;;;;;5057136;28;20041;-48
2022/07/31 11:41:49;;;;;;;;;;;21.10;99.90;;;;;;5047321;28;19917;-49
2022/07/31 11:44:20;;;;;;;23.88;17.35;;;21.10;99.90;;;;;;5042790;28;19917;-48
2022/07/31 11:46:48;;;;;;;22.60;18.85;;;21.10;99.90;;;;;;5026599;28;20121;-48
2022/07/31 11:49:20;;;;;;;22.48;19.63;;;21.00;99.90;;;;;;5031357;28;20120;-51
2022/07/31 11:51:47;;;;;;;21.35;18.55;;;20.90;99.90;;;;;;5047681;28;20366;-48
2022/07/31 11:54:22;;;;;;;22.92;20.27;;;20.80;99.90;;;;;;5046445;28;20033;-48
2022/07/31 11:56:54;;;;;;;24.05;19.92;;;20.70;99.90;;;;;;5047571;28;20033;-48
2022/07/31 11:59:36;;;;;;;24.17;20.20;;;20.60;99.90;;;;;;5047654;28;20458;-48
2022/07/31 12:02:20;;;;;;;25.15;20.92;;;20.50;99.90;;;;;;5046933;28;20045;-48
2022/07/31 12:04:46;;;;;;;22.98;20.35;;;20.30;99.90;;;;;;5047082;28;20029;-48
2022/07/31 12:07:11;;;;;;;21.50;19.15;;;20.20;99.90;;;;;;5046993;28;20033;-48
2022/07/31 12:09:37;;;;;;;;;;;20.00;99.90;;;;;;5047504;28;20052;-48
2022/07/31 12:12:04;;;;;;;24.55;19.02;;;19.90;99.90;;;;;;5046761;28;19920;-47
2022/07/31 12:14:35;;;;;;;23.25;19.25;;;19.80;99.90;;;;;;5042991;28;20092;-48
2022/07/31 12:17:02;;;;;;;24.88;22.38;;;19.70;99.90;;;;;;5047009;28;20045;-48
2022/07/31 12:19:29;;;;;;;24.30;20.90;;;19.60;99.90;;;;;;5045876;28;20236;-48
2022/07/31 12:21:56;;;;;;;24.75;21.77;;;19.60;99.90;;;;;;5043785;28;20059;-49
2022/07/31 12:24:22;;;;;;;24.63;22.13;;;19.50;99.90;;;;;;5046631;28;20470;-49
2022/07/31 12:26:53;;;;;;;23.95;21.15;;;19.50;99.90;;;;;;5045960;28;20062;-48
2022/07/31 12:29:27;;;;;;;22.83;20.30;;;19.40;99.90;;;;;;5044188;28;20029;-48
2022/07/31 12:31:53;;;;;;;27.42;21.27;;;19.30;99.90;;;;;;5046327;28;20106;-50
2022/07/31 12:34:30;;;;;;;25.92;22.45;;;19.30;99.90;;;;;;5046751;28;20557;-49
2022/07/31 12:37:04;;;;;;;26.00;21.83;;;19.30;99.90;;;;;;5045859;28;20405;-50
2022/07/31 12:39:33;;;;;;;26.73;23.55;;;19.30;99.90;;;;;;5047019;28;20128;-47
2022/07/31 12:41:59;;;;;;;29.58;23.08;;;19.20;99.90;;;;;;5046121;28;20037;-48
2022/07/31 12:44:24;;;;;;;25.65;22.95;;;19.30;99.90;;;;;;5045894;28;20033;-49
2022/07/31 12:46:50;;;;;;;28.60;25.15;;;19.40;99.90;;;;;;5045971;28;20128;-47
2022/07/31 12:49:16;;;;;;;28.38;25.30;;;19.40;99.90;;;;;;5046259;28;20076;-47
2022/07/31 12:51:42;;;;;;;30.50;24.70;;;19.50;99.90;;;;;;5044980;28;20037;-48
2022/07/31 12:54:08;;;;;;;;;;;19.50;99.90;;;;;;5045717;28;20041;-48
2022/07/31 12:56:39;;;;;;;30.00;25.17;;;19.50;99.90;;;;;;5046433;28;19924;-47
2022/07/31 12:59:06;;;;;;;26.50;22.30;;;19.40;99.90;;;;;;5044551;28;20090;-48
2022/07/31 13:01:33;;;;;;;29.80;24.77;;;19.40;99.90;;;;;;5046114;28;20394;-48
2022/07/31 13:03:59;;;;;;;29.98;26.50;;;19.30;99.90;;;;;;5045158;28;20029;-47
2022/07/31 13:06:28;;;;;;;29.13;25.75;;;19.30;99.90;;;;;;5045190;28;20486;-48
2022/07/31 13:08:55;;;;;;;32.72;26.60;;;19.30;99.90;;;;;;5045795;28;20033;-48
2022/07/31 13:11:20;;;;;;;37.08;27.30;;;19.30;99.90;;;;;;5045912;28;20521;-48
2022/07/31 13:13:46;;;;;;;30.20;24.58;;;19.30;99.90;;;;;;5044939;28;20037;-49
2022/07/31 13:16:12;;;;;;;31.58;28.13;;;19.30;99.90;;;;;;5044131;28;20431;-48
2022/07/31 13:18:37;;;;;;;30.88;27.67;;;19.30;99.90;;;;;;5045467;28;20035;-48
2022/07/31 13:21:04;;;;;;;;;;;19.40;99.90;;;;;;5046188;28;20045;-48
2022/07/31 13:23:30;;;;;;;37.50;30.50;;;19.30;99.90;;;;;;5044666;28;20433;-49
2022/07/31 13:25:56;;;;;;;;;;;19.30;99.90;;;;;;5046035;28;20081;-48
2022/07/31 13:28:22;;;;;;;35.47;29.58;;;19.30;99.90;;;;;;5044842;28;20391;-49
2022/07/31 13:30:48;;;;;;;31.63;28.10;;;19.30;99.90;;;;;;5045110;28;20060;-48
2022/07/31 13:33:14;;;;;;;33.70;29.85;;;19.30;99.90;;;;;;5044986;28;20517;-48
2022/07/31 13:35:39;;;;;;;34.17;30.55;;;19.20;99.90;;;;;;5045096;28;20386;-48
2022/07/31 13:38:05;;;;;;;37.75;31.90;;;19.20;99.90;;;;;;5044893;28;20033;-48
2022/07/31 13:43:14;;;;;;;38.75;31.35;;;19.20;99.90;;;;;;5044782;28;20040;-49
2022/07/31 13:45:40;;;;;;;40.45;33.33;;;19.20;99.90;;;;;;5044471;28;20028;-49
2022/07/31 13:48:06;;;;;;;39.80;33.95;;;19.20;99.90;;;;;;5044143;28;20033;-48
2022/07/31 13:50:32;;;;;;;36.30;31.63;;;19.20;99.90;;;;;;5032910;28;20052;-50
2022/07/31 13:52:57;;;;;;;;;;;19.20;99.90;;;;;;5044713;28;20029;-50
2022/07/31 13:55:24;;;;;;;41.35;33.08;;;19.20;99.90;;;;;;5043617;28;20019;-48